Decoded Metar for KVBG (LOMPOC in CA, USA) (IATA:VBG) | Meteo·Mobile Aviation Weather
aviador You're here:

KVBG Decoded Metar

LOMPOC in CA, USA
Report Time2018-08-22 06:33:00
UTC Time2018-08-22 06:58:04
Flight Rules ifr IFR
Wind360° at 05 kt
W.Decomp.*RWY 30: 3.5 kt HW 3.6 kt RCW
Visibility9999 m
Phenomena:N/A
Clouds:Overcast 008 Hf
Expected CloudBase > 400 ft AGL from Temp-Dew spread
Ceiling800 ft
Temp15°C (ISA +1)
Dew Point14°C (94% RH)
AAT14.5°C
QNH1017 hPa
Density Alt531 ft
Elevation367 ft
Report Wrong Elevation
Raw Report
KVBG 220633Z AUTO 36005KT 10SM OVC008 15/14 A3002 RMK AO2
SLP168=

Extra information for KVBG:More info

Metar Taf Metar & Taf Last 4 Metars F.Rules Stats Wind Profile Meteogram Temp Stats Airport Information Weather charts Add Link Nearby VenuesMetar ALERT Operation Metar Decoded Social comments

AIRNAV info for KVBG